Historyczne dane pomiarowe

Dodano dane terminowe – wersja testowa.

Dane z okresu 1951-2019

Wersja bazy: 1.34 [2019-03-16, lista zmian], aktualizacja planowana na 2019-04-15

Dane meteo z obszaru Polski uzyskane na podstawie danych udostępnionych przez Instytut Meteorologii i Gospodarki Wodnej – Państwowy Instytut Badawczy.

 

Wybierz Datę:    

       

TemperaturaWilgotnośćWiatrCiśnienieOpadyŚniegCzas trwania zjawisk
 Stacja t tx tn tng RH VA  wxwx mslp ppp RRR   cm mm wxwxwxwxwxwxwx
1999-08-14 15.9 19.9 11.2- 81.3- 4.7 2.3---- 0.3------------
1999-08-13 16.4 18.8 14.3- 83.0- 7.3 3.3---- 3.0------------
1999-08-12 17.7 20.1 15.3- 82.0- 6.7 8.7---- 37.5------------
1999-08-11 18.6 21.3 16.5- 87.0- 7.0 7.0---- 6.1------------
1999-08-10 19.9 23.5 15.3- 81.0- 5.0 2.0---- 0.9------------
1999-08-09 21.2 25.2 17.3- 75.8- 5.0 3.3---- 0.0------------
1999-08-08 20.7 23.9 17.8- 84.0- 6.0 2.3---- 0.2------------
1999-08-07 21.0 25.4 16.6- 85.3- 5.0 3.0---- 0.9------------
1999-08-06 20.1 24.5 17.0- 78.3- 5.0 2.7---- 0.0------------
1999-08-05 19.5 23.9 14.0- 70.8- 4.0 2.3---- 0.0------------
1999-08-04 18.5 23.9 13.8- 84.3- 3.0 4.0---- 0.0------------
1999-08-03 18.2 23.4 12.3- 87.5- 6.0 3.7---- 0.0------------
1999-08-02 18.8 23.5 13.0- 81.0- 2.7 6.3---- 0.0------------
1999-08-01 19.4 23.9 12.8- 74.8- 3.3 5.0---- 0.0------------
1999-07-31 19.3 23.4 13.1- 70.5- 2.7 4.0---- 0.0------------
1999-07-30 17.0 20.9 10.1- 84.5- 2.3 3.0---- 0.0------------
1999-07-29 17.4 21.1 10.3- 75.5- 3.0 2.3---- 0.0------------
1999-07-28 17.2 20.1 10.8- 72.5- 3.3 4.0---- 0.0------------
1999-07-27 16.6 19.6 11.3- 75.0- 3.0 3.3---- 0.0------------
1999-07-26 17.9 19.4 17.2- 69.8- 4.3 4.0---- 0.0------------
1999-07-25 19.0 22.1 16.8- 85.5- 5.0 4.7---- 0.0------------
1999-07-24 17.0 17.9 15.1- 82.0- 7.3 6.0---- 0.0------------
1999-07-23 17.6 22.2 14.3- 81.0- 5.0 6.3---- 0.1------------
1999-07-22 17.9 21.5 15.2- 73.0- 6.0 8.7---- 0.0------------
1999-07-21 21.3 23.6 18.4- 75.3- 5.0 3.3---- 12.5------------
1999-07-20 23.7 31.6 18.3- 66.3- 4.3 2.3---- 0.0------------
1999-07-19 21.2 26.3 14.8- 83.3- 3.3 3.0---- 0.0------------
1999-07-18 19.1 22.3 15.3- 78.5- 4.7 2.3---- 0.0------------
1999-07-17 18.1 21.9 14.7- 80.8- 6.3 5.0---- 0.0------------
1999-07-16 17.2 20.5 13.8- 75.8- 3.7 5.0---- 0.0------------
1999-07-15 16.0 17.7 14.0- 87.3- 5.3 6.0---- 5.7------------
1999-07-14 18.9 22.9 15.4- 89.5- 6.7 4.0---- 6.7------------
1999-07-13 20.8 25.4 16.3- 80.3- 7.3 2.7---- 18.0------------
1999-07-12 22.9 29.4 15.8- 66.0- 5.0 2.3---- 0.0------------
1999-07-11 19.3 23.9 13.6- 75.8- 2.0 4.3---- 0.0------------
1999-07-10 18.6 21.9 13.3- 73.5- 2.7 6.3---- 0.0------------
1999-07-09 17.6 19.4 15.8- 68.8- 5.3 11.3---- 0.0------------
1999-07-08 18.4 19.9 17.4- 79.5- 4.3 8.7---- 0.0------------
1999-07-07 18.6 20.7 17.2- 81.5- 6.0 3.3---- 0.0------------
1999-07-06 21.6 29.9 17.8- 86.8- 6.7 2.0---- 8.3------------
1999-07-05 25.1 34.4 15.3- 57.3- 5.3 4.3---- 1.6------------
1999-07-04 20.3 23.1 17.2- 83.8- 4.7 4.0---- 0.2------------
1999-07-03 19.2 22.0 15.3- 74.3- 5.3 2.7---- 3.4------------
1999-07-02 17.9 22.4 12.3- 78.5- 5.7 2.0---- 0.0------------
1999-07-01 18.2 20.1 17.3- 86.3- 7.3 2.0---- 0.0------------
1999-06-30 20.5 27.1 15.6- 68.8- 6.7 3.0---- 1.7------------
1999-06-29 16.9 19.9 11.8- 78.0- 4.3 3.0---- 0.0------------
1999-06-28 19.9 26.4 17.3- 83.0- 7.3 4.3---- 1.2------------
1999-06-27 19.5 25.1 12.1- 71.0- 6.3 2.3---- 0.0------------
1999-06-26 14.5 18.2 7.3- 65.3- 4.7 2.3---- 0.0------------
1999-06-25 13.6 16.3 8.8- 77.8- 6.0 2.3---- 1.0------------
1999-06-24 15.5 17.9 13.8- 77.0- 4.3 1.3---- 0.0------------
1999-06-23 13.6 15.5 10.3- 78.3- 6.3 8.3---- 0.0------------
1999-06-22 14.3 15.5 13.3- 72.5- 7.3 6.0---- 2.2------------
1999-06-21 16.2 21.5 13.4- 82.3- 6.7 6.0---- 1.0------------
1999-06-20 18.1 23.5 10.3- 67.5- 4.3 4.0---- 5.2------------
1999-06-19 16.0 17.4 14.8- 90.8- 7.0 3.0---- 0.0------------
1999-06-18 16.8 18.9 13.3- 83.8- 4.7 2.7---- 0.0------------
1999-06-17 16.3 20.4 10.0- 81.5- 3.0 2.0---- 0.0------------
1999-06-16 16.1 18.4 13.6- 86.5- 4.3 2.0---- 0.0------------
292.6 ms

 

Źródłem pochodzenia danych jest Instytut Meteorologii i Gospodarki Wodnej – Państwowy Instytut Badawczy. Dane Instytutu Meteorologii i Gospodarki Wodnej – Państwowego Instytutu Badawczego zostały przetworzone.

Dane źródłowe można odnaleźć na stronie https://dane.imgw.pl